Time;durP1;ratioP1;P1;durP2;ratioP2;P2;SDS_P1;SDS_P2;PMS_P1;PMS_P2;Temp;Humidity;BMP_temperature;BMP_pressure;BME280_temperature;BME280_humidity;BME280_pressure;Samples;Min_cycle;Max_cycle;Signal;HPM_P1;HPM_P2
2021/12/11 00:00:14;;;;;;;0.40;0.40;;;;;;;;;;6199438;23;20198;-95
2021/12/11 00:02:42;;;;;;;0.50;0.43;;;;;;;;;;6197722;23;20193;-95
2021/12/11 00:05:11;;;;;;;0.80;0.80;;;;;;;;;;6195618;23;20189;-94
2021/12/11 00:07:39;;;;;;;0.90;0.47;;;;;;;;;;6194523;23;20175;-96
2021/12/11 00:10:11;;;;;;;0.63;0.63;;;;;;;;;;6195556;23;20205;-94
2021/12/11 00:12:44;;;;;;;1.37;0.70;;;;;;;;;;6193482;23;20272;-95
2021/12/11 00:15:14;;;;;;;0.53;0.53;;;;;;;;;;6196930;23;20174;-95
2021/12/11 00:17:41;;;;;;;0.50;0.50;;;;;;;;;;6194904;23;20412;-95
2021/12/11 00:20:15;;;;;;;0.50;0.50;;;;;;;;;;6194560;23;20198;-95
2021/12/11 00:22:43;;;;;;;0.93;0.60;;;;;;;;;;6195660;23;20222;-95
2021/12/11 00:25:13;;;;;;;0.73;0.70;;;;;;;;;;6194722;23;20179;-93
2021/12/11 00:27:41;;;;;;;0.73;0.60;;;;;;;;;;6195384;23;20764;-93
2021/12/11 00:30:10;;;;;;;0.40;0.40;;;;;;;;;;6195892;23;20198;-92
2021/12/11 00:32:38;;;;;;;0.57;0.53;;;;;;;;;;6192511;23;20190;-93
2021/12/11 00:35:07;;;;;;;0.63;0.63;;;;;;;;;;6190795;23;20179;-93
2021/12/11 00:37:35;;;;;;;0.40;0.40;;;;;;;;;;6194768;23;20175;-92
2021/12/11 00:40:05;;;;;;;1.30;0.60;;;;;;;;;;6190610;23;20209;-92
2021/12/11 00:42:34;;;;;;;0.93;0.60;;;;;;;;;;6191136;23;20182;-92
2021/12/11 00:45:03;;;;;;;0.70;0.60;;;;;;;;;;6192474;23;20233;-94
2021/12/11 00:47:31;;;;;;;1.00;0.80;;;;;;;;;;6191241;23;20254;-93
2021/12/11 00:50:00;;;;;;;0.60;0.60;;;;;;;;;;6191224;23;20199;-93
2021/12/11 00:52:28;;;;;;;0.50;0.50;;;;;;;;;;6191441;23;20190;-93
2021/12/11 00:54:56;;;;;;;0.60;0.60;;;;;;;;;;6191913;23;20179;-94
2021/12/11 00:57:23;;;;;;;0.80;0.80;;;;;;;;;;6190700;23;20174;-93
2021/12/11 01:00:01;;;;;;;0.40;0.40;;;;;;;;;;6190650;23;20199;-93
2021/12/11 01:02:28;;;;;;;0.50;0.50;;;;;;;;;;6191598;23;20181;-93
2021/12/11 01:04:56;;;;;;;1.20;0.80;;;;;;;;;;6189887;23;20179;-92
2021/12/11 01:07:30;;;;;;;0.90;0.90;;;;;;;;;;6191523;23;20178;-93
2021/12/11 01:09:58;;;;;;;1.40;0.93;;;;;;;;;;6191073;23;20199;-94
2021/12/11 01:12:36;;;;;;;0.70;0.70;;;;;;;;;;6191380;23;20226;-93
2021/12/11 01:15:09;;;;;;;0.60;0.60;;;;;;;;;;6191491;23;20171;-93
2021/12/11 01:17:43;;;;;;;0.57;0.57;;;;;;;;;;6190117;23;20174;-93
2021/12/11 01:20:13;;;;;;;0.63;0.50;;;;;;;;;;6190645;23;20209;-93
2021/12/11 01:22:42;;;;;;;1.67;0.87;;;;;;;;;;6190504;23;20210;-93
2021/12/11 01:25:12;;;;;;;0.70;0.63;;;;;;;;;;6190617;23;20178;-92
2021/12/11 01:27:42;;;;;;;0.60;0.60;;;;;;;;;;6190345;23;20182;-92
2021/12/11 01:30:13;;;;;;;0.60;0.60;;;;;;;;;;6191415;23;20249;-92
2021/12/11 01:32:40;;;;;;;2.30;0.70;;;;;;;;;;6191239;23;20190;-92
2021/12/11 01:35:10;;;;;;;2.37;0.90;;;;;;;;;;6191382;23;20178;-93
2021/12/11 01:37:37;;;;;;;0.60;0.60;;;;;;;;;;6191144;23;20229;-93
2021/12/11 01:40:07;;;;;;;0.40;0.40;;;;;;;;;;6192006;23;20249;-93
2021/12/11 01:42:35;;;;;;;1.17;0.70;;;;;;;;;;6190526;23;20178;-92
2021/12/11 01:45:03;;;;;;;0.63;0.60;;;;;;;;;;6190920;23;20245;-93
2021/12/11 01:47:33;;;;;;;1.10;0.73;;;;;;;;;;6192105;23;20178;-93
2021/12/11 01:50:03;;;;;;;2.20;0.60;;;;;;;;;;6192152;23;20225;-92
2021/12/11 01:52:37;;;;;;;0.67;0.50;;;;;;;;;;6192152;23;20195;-93
2021/12/11 01:55:06;;;;;;;0.60;0.60;;;;;;;;;;6192411;23;20658;-93
2021/12/11 01:57:33;;;;;;;0.83;0.60;;;;;;;;;;6192465;23;20174;-93
2021/12/11 02:00:02;;;;;;;1.63;0.93;;;;;;;;;;6191692;23;20680;-93
2021/12/11 02:02:33;;;;;;;2.10;0.90;;;;;;;;;;6192491;23;20171;-93
2021/12/11 02:05:02;;;;;;;0.50;0.50;;;;;;;;;;6192388;23;20179;-94
2021/12/11 02:07:31;;;;;;;1.40;0.80;;;;;;;;;;6192487;23;20187;-93
2021/12/11 02:10:00;;;;;;;0.67;0.50;;;;;;;;;;6192944;23;20205;-93
2021/12/11 02:12:31;;;;;;;0.60;0.50;;;;;;;;;;6193134;23;20190;-93
2021/12/11 02:15:01;;;;;;;0.50;0.50;;;;;;;;;;6193503;23;20194;-93
2021/12/11 02:17:34;;;;;;;0.73;0.50;;;;;;;;;;6193943;23;20175;-94
2021/12/11 02:20:05;;;;;;;1.07;0.50;;;;;;;;;;6191131;23;20262;-93
2021/12/11 02:22:39;;;;;;;0.70;0.60;;;;;;;;;;6193848;23;20175;-94
2021/12/11 02:25:09;;;;;;;1.20;0.83;;;;;;;;;;6193843;23;20184;-93
2021/12/11 02:27:41;;;;;;;0.60;0.60;;;;;;;;;;6194673;23;20214;-93
2021/12/11 02:30:16;;;;;;;0.67;0.67;;;;;;;;;;6194778;23;20199;-93
2021/12/11 02:32:47;;;;;;;0.70;0.70;;;;;;;;;;6194760;23;20197;-93
2021/12/11 02:35:17;;;;;;;0.50;0.50;;;;;;;;;;6193217;23;20233;-93
2021/12/11 02:37:47;;;;;;;0.60;0.60;;;;;;;;;;6194838;23;20174;-94
2021/12/11 02:40:19;;;;;;;0.50;0.50;;;;;;;;;;6195694;23;20195;-93
2021/12/11 02:42:51;;;;;;;0.60;0.30;;;;;;;;;;6197831;23;20179;-92
2021/12/11 02:45:21;;;;;;;0.40;0.40;;;;;;;;;;6200483;23;20178;-93
2021/12/11 02:47:50;;;;;;;0.40;0.40;;;;;;;;;;6201562;23;20198;-94
2021/12/11 02:50:20;;;;;;;0.40;0.40;;;;;;;;;;6202317;23;20198;-95
2021/12/11 02:52:51;;;;;;;0.40;0.40;;;;;;;;;;6203559;23;20194;-94
2021/12/11 02:55:20;;;;;;;0.20;0.20;;;;;;;;;;6204207;23;20197;-94
2021/12/11 02:57:50;;;;;;;0.30;0.20;;;;;;;;;;6204777;23;20171;-90
2021/12/11 03:00:18;;;;;;;0.20;0.20;;;;;;;;;;6204734;23;20194;-93
2021/12/11 03:02:49;;;;;;;0.27;0.20;;;;;;;;;;6205741;23;20162;-93
2021/12/11 03:05:19;;;;;;;0.40;0.40;;;;;;;;;;6207511;23;20171;-92
2021/12/11 03:07:52;;;;;;;0.30;0.30;;;;;;;;;;6207488;23;20174;-93
2021/12/11 03:10:24;;;;;;;0.20;0.20;;;;;;;;;;6206646;23;20206;-94
2021/12/11 03:12:52;;;;;;;0.40;0.20;;;;;;;;;;6207938;23;20186;-93
2021/12/11 03:15:20;;;;;;;0.23;0.23;;;;;;;;;;6209387;23;20162;-93
2021/12/11 03:17:47;;;;;;;0.20;0.20;;;;;;;;;;6208724;23;20163;-94
2021/12/11 03:20:16;;;;;;;0.30;0.30;;;;;;;;;;6207687;23;20195;-94
2021/12/11 03:22:46;;;;;;;0.30;0.30;;;;;;;;;;6205876;23;20214;-93
2021/12/11 03:25:17;;;;;;;0.33;0.33;;;;;;;;;;6207707;23;20182;-93
2021/12/11 03:27:44;;;;;;;0.50;0.50;;;;;;;;;;6207730;23;20253;-93
2021/12/11 03:30:13;;;;;;;0.40;0.40;;;;;;;;;;6207792;23;20198;-91
2021/12/11 03:32:41;;;;;;;0.43;0.40;;;;;;;;;;6209760;23;20198;-93
2021/12/11 03:35:09;;;;;;;0.40;0.40;;;;;;;;;;6209153;23;20171;-93
2021/12/11 03:37:37;;;;;;;0.60;0.60;;;;;;;;;;6209854;23;20196;-93
2021/12/11 03:40:05;;;;;;;0.67;0.60;;;;;;;;;;6210606;23;20194;-94
2021/12/11 03:42:35;;;;;;;0.50;0.50;;;;;;;;;;6210056;23;20202;-93
2021/12/11 03:45:06;;;;;;;0.80;0.70;;;;;;;;;;6208139;23;20232;-93
2021/12/11 03:47:37;;;;;;;1.30;0.80;;;;;;;;;;6208968;23;20163;-95
2021/12/11 03:50:07;;;;;;;0.70;0.70;;;;;;;;;;6208307;23;20202;-94
2021/12/11 03:52:36;;;;;;;2.20;0.90;;;;;;;;;;6207908;23;20217;-92
2021/12/11 03:55:04;;;;;;;0.70;0.70;;;;;;;;;;6208130;23;20209;-93
2021/12/11 03:57:31;;;;;;;0.80;0.80;;;;;;;;;;6207595;23;20174;-93
2021/12/11 04:00:00;;;;;;;0.80;0.80;;;;;;;;;;6206448;23;20245;-93
2021/12/11 04:02:32;;;;;;;0.87;0.87;;;;;;;;;;6206020;23;20206;-93
2021/12/11 04:05:01;;;;;;;1.00;1.00;;;;;;;;;;6206594;23;20178;-93
2021/12/11 04:07:30;;;;;;;1.00;0.93;;;;;;;;;;6206711;23;20179;-94
2021/12/11 04:09:58;;;;;;;1.60;0.90;;;;;;;;;;6206533;23;20209;-94
2021/12/11 04:12:26;;;;;;;1.33;1.10;;;;;;;;;;6206910;23;20179;-94
2021/12/11 04:14:54;;;;;;;1.67;1.00;;;;;;;;;;6206501;23;20167;-93
2021/12/11 04:17:24;;;;;;;1.00;1.00;;;;;;;;;;6205517;23;20189;-93
2021/12/11 04:19:54;;;;;;;0.97;0.97;;;;;;;;;;6205833;23;20198;-93
2021/12/11 04:22:22;;;;;;;1.80;1.37;;;;;;;;;;6205940;23;20171;-93
2021/12/11 04:24:49;;;;;;;1.60;1.10;;;;;;;;;;6206975;23;20179;-94
2021/12/11 04:27:19;;;;;;;1.83;1.40;;;;;;;;;;6205030;23;20179;-94
2021/12/11 04:29:49;;;;;;;1.53;1.20;;;;;;;;;;6205658;23;20213;-94
2021/12/11 04:32:17;;;;;;;1.47;1.30;;;;;;;;;;6206386;23;20198;-93
2021/12/11 04:34:45;;;;;;;1.23;1.20;;;;;;;;;;6204544;23;20178;-93
2021/12/11 04:37:17;;;;;;;1.10;1.10;;;;;;;;;;6203807;23;20179;-93
2021/12/11 04:39:45;;;;;;;1.20;1.13;;;;;;;;;;6205335;23;20206;-94
2021/12/11 04:42:19;;;;;;;1.40;1.30;;;;;;;;;;6205116;23;20209;-93
2021/12/11 04:44:47;;;;;;;1.80;1.70;;;;;;;;;;6205620;23;20254;-94
2021/12/11 04:47:27;;;;;;;1.50;1.40;;;;;;;;;;6204923;23;20279;-94
2021/12/11 04:50:00;;;;;;;1.60;1.50;;;;;;;;;;6206075;23;20199;-94
2021/12/11 04:52:33;;;;;;;1.97;1.77;;;;;;;;;;6205762;23;20166;-93
2021/12/11 04:55:06;;;;;;;1.83;1.13;;;;;;;;;;6206131;23;20171;-93
2021/12/11 05:00:32;;;;;;;1.70;1.60;;;;;;;;;;6194985;23;20198;-93
2021/12/11 05:03:26;;;;;;;2.33;1.13;;;;;;;;;;6203746;23;20167;-94
2021/12/11 05:06:15;;;;;;;1.50;1.40;;;;;;;;;;6205807;23;20234;-94
2021/12/11 05:11:36;;;;;;;1.20;1.20;;;;;;;;;;6205386;23;20163;-94
2021/12/11 05:14:03;;;;;;;1.37;1.37;;;;;;;;;;6203758;23;20204;-93
2021/12/11 05:16:31;;;;;;;1.50;1.40;;;;;;;;;;6204292;23;20323;-94
2021/12/11 05:18:58;;;;;;;1.47;1.33;;;;;;;;;;6204764;23;20187;-93
2021/12/11 05:21:27;;;;;;;1.80;1.70;;;;;;;;;;6201558;23;20189;-93
2021/12/11 05:23:55;;;;;;;1.53;1.43;;;;;;;;;;6203442;23;20171;-93
2021/12/11 05:26:22;;;;;;;1.20;1.20;;;;;;;;;;6203283;23;20183;-94
2021/12/11 05:28:50;;;;;;;2.03;1.60;;;;;;;;;;6203913;23;20218;-93
2021/12/11 05:31:18;;;;;;;1.60;1.50;;;;;;;;;;6203396;23;20206;-94
2021/12/11 05:33:45;;;;;;;2.10;1.83;;;;;;;;;;6204570;23;20222;-93
2021/12/11 05:36:15;;;;;;;2.23;2.03;;;;;;;;;;6203554;23;20179;-93
2021/12/11 05:38:47;;;;;;;1.70;1.60;;;;;;;;;;6202322;23;20233;-94
2021/12/11 05:41:16;;;;;;;2.30;2.10;;;;;;;;;;6203288;23;20198;-94
2021/12/11 05:43:43;;;;;;;2.03;1.90;;;;;;;;;;6202820;23;20171;-94
2021/12/11 05:46:13;;;;;;;1.60;1.60;;;;;;;;;;6204095;23;20183;-93
2021/12/11 05:48:40;;;;;;;2.30;2.10;;;;;;;;;;6202538;23;20179;-93
2021/12/11 05:51:09;;;;;;;2.40;2.30;;;;;;;;;;6203830;23;20203;-94
2021/12/11 05:53:37;;;;;;;2.60;2.40;;;;;;;;;;6203758;23;20195;-93
2021/12/11 05:56:09;;;;;;;2.67;2.50;;;;;;;;;;6203132;23;20175;-94
2021/12/11 05:58:46;;;;;;;2.30;2.10;;;;;;;;;;6203064;23;20197;-94
2021/12/11 06:01:16;;;;;;;0.87;0.87;;;;;;;;;;6202793;23;20518;-94
2021/12/11 06:03:43;;;;;;;2.67;2.10;;;;;;;;;;6201951;23;20167;-93
2021/12/11 06:06:11;;;;;;;2.30;2.10;;;;;;;;;;6201961;23;20178;-94
2021/12/11 06:08:38;;;;;;;3.57;2.20;;;;;;;;;;6201572;23;20187;-93
2021/12/11 06:11:08;;;;;;;3.13;2.33;;;;;;;;;;6203385;23;20225;-94
2021/12/11 06:13:35;;;;;;;2.73;1.83;;;;;;;;;;6200580;23;20432;-93
2021/12/11 06:16:04;;;;;;;2.50;2.30;;;;;;;;;;6201144;23;20179;-95
2021/12/11 06:18:32;;;;;;;2.00;1.90;;;;;;;;;;6201999;23;20178;-93
2021/12/11 06:20:59;;;;;;;2.47;1.53;;;;;;;;;;6199343;23;20229;-93
2021/12/11 06:23:28;;;;;;;2.07;1.97;;;;;;;;;;6202501;23;20175;-93
2021/12/11 06:25:55;;;;;;;2.20;2.00;;;;;;;;;;6201718;23;20226;-94
2021/12/11 06:28:26;;;;;;;2.10;2.00;;;;;;;;;;6199530;23;20209;-94
2021/12/11 06:30:57;;;;;;;2.40;2.20;;;;;;;;;;6201009;23;20207;-94
2021/12/11 06:33:25;;;;;;;2.37;2.27;;;;;;;;;;6200647;23;20267;-93
2021/12/11 06:35:54;;;;;;;2.00;1.90;;;;;;;;;;6203244;23;20183;-94
2021/12/11 06:38:23;;;;;;;2.40;2.20;;;;;;;;;;6201916;23;20233;-95
2021/12/11 06:40:52;;;;;;;2.33;2.20;;;;;;;;;;6202338;23;20201;-94
2021/12/11 06:43:19;;;;;;;2.33;2.10;;;;;;;;;;6201319;23;20187;-95
2021/12/11 06:45:48;;;;;;;1.47;1.37;;;;;;;;;;6204048;23;20205;-92
2021/12/11 06:48:17;;;;;;;2.23;2.00;;;;;;;;;;6206473;23;20241;-94
2021/12/11 06:50:44;;;;;;;2.30;2.10;;;;;;;;;;6207821;23;20225;-92
2021/12/11 06:53:15;;;;;;;2.33;2.23;;;;;;;;;;6209593;23;20167;-93
2021/12/11 06:55:42;;;;;;;2.23;2.13;;;;;;;;;;6207919;23;20229;-93
2021/12/11 06:58:09;;;;;;;2.27;2.10;;;;;;;;;;6208802;23;20193;-93
2021/12/11 07:00:37;;;;;;;2.33;2.17;;;;;;;;;;6208813;23;20234;-93
2021/12/11 07:03:06;;;;;;;2.97;2.73;;;;;;;;;;6209592;23;20185;-93
2021/12/11 07:08:18;;;;;;;2.93;2.73;;;;;;;;;;6210888;23;20166;-92
2021/12/11 07:10:46;;;;;;;2.67;2.47;;;;;;;;;;6211557;23;20234;-94
2021/12/11 07:13:14;;;;;;;2.60;2.37;;;;;;;;;;6212988;23;20166;-93
2021/12/11 07:15:43;;;;;;;2.60;2.00;;;;;;;;;;6213042;23;20175;-93
2021/12/11 07:18:12;;;;;;;1.87;1.77;;;;;;;;;;6212259;23;20166;-94
2021/12/11 07:20:39;;;;;;;2.07;1.97;;;;;;;;;;6212666;23;20245;-93
2021/12/11 07:23:07;;;;;;;3.13;2.10;;;;;;;;;;6212352;23;20180;-94
2021/12/11 07:25:38;;;;;;;2.47;2.37;;;;;;;;;;6209933;23;20159;-93
2021/12/11 07:28:08;;;;;;;2.43;2.30;;;;;;;;;;6209370;23;20186;-94
2021/12/11 07:30:36;;;;;;;2.50;2.30;;;;;;;;;;6209940;23;20199;-92
2021/12/11 07:33:04;;;;;;;2.57;2.37;;;;;;;;;;6207567;23;20186;-94
2021/12/11 07:35:33;;;;;;;2.80;2.60;;;;;;;;;;6208140;23;20194;-94
2021/12/11 07:38:01;;;;;;;3.23;2.97;;;;;;;;;;6206860;23;20175;-94
2021/12/11 07:40:34;;;;;;;3.07;2.87;;;;;;;;;;6211030;23;20195;-93
2021/12/11 07:43:02;;;;;;;3.53;3.23;;;;;;;;;;6209815;23;20193;-93
2021/12/11 07:45:31;;;;;;;3.07;2.90;;;;;;;;;;6208963;23;20201;-93
2021/12/11 07:47:59;;;;;;;4.23;3.83;;;;;;;;;;6209670;23;20169;-93
2021/12/11 07:50:27;;;;;;;3.40;3.10;;;;;;;;;;6210427;23;20225;-94
2021/12/11 07:52:56;;;;;;;3.10;2.73;;;;;;;;;;6210640;23;20178;-93
2021/12/11 07:55:26;;;;;;;3.77;3.43;;;;;;;;;;6210655;23;20182;-92
2021/12/11 07:57:53;;;;;;;6.13;4.10;;;;;;;;;;6209634;23;20179;-93
2021/12/11 08:00:24;;;;;;;3.80;3.40;;;;;;;;;;6211373;23;20229;-93
2021/12/11 08:02:52;;;;;;;4.20;3.80;;;;;;;;;;6210900;23;20175;-93
2021/12/11 08:05:19;;;;;;;4.07;3.67;;;;;;;;;;6211696;23;20163;-94
2021/12/11 08:07:47;;;;;;;4.37;3.97;;;;;;;;;;6211224;23;20197;-93
2021/12/11 08:10:17;;;;;;;5.37;4.37;;;;;;;;;;6211822;23;20190;-94
2021/12/11 08:12:45;;;;;;;4.27;3.87;;;;;;;;;;6210789;23;20190;-93
2021/12/11 08:15:14;;;;;;;6.70;4.47;;;;;;;;;;6210470;23;20213;-92
2021/12/11 08:17:42;;;;;;;4.23;3.83;;;;;;;;;;6209275;23;20221;-94
2021/12/11 08:20:10;;;;;;;4.83;4.33;;;;;;;;;;6208985;23;20187;-92
2021/12/11 08:22:38;;;;;;;4.63;4.20;;;;;;;;;;6207242;23;20179;-93
2021/12/11 08:25:07;;;;;;;5.20;4.70;;;;;;;;;;6208348;23;20179;-93
2021/12/11 08:27:36;;;;;;;5.60;5.03;;;;;;;;;;6208063;23;20155;-93
2021/12/11 08:30:04;;;;;;;5.33;4.83;;;;;;;;;;6187045;23;20199;-93
2021/12/11 08:32:32;;;;;;;8.17;5.30;;;;;;;;;;6187732;23;20178;-93
2021/12/11 08:35:15;;;;;;;6.53;5.33;;;;;;;;;;6187255;23;20207;-93
2021/12/11 08:37:45;;;;;;;8.40;6.03;;;;;;;;;;6186390;23;20477;-93
2021/12/11 08:40:17;;;;;;;8.33;5.57;;;;;;;;;;6201272;23;20203;-91
2021/12/11 08:42:46;;;;;;;7.07;5.93;;;;;;;;;;6204293;23;20177;-90
2021/12/11 08:45:21;;;;;;;7.83;5.80;;;;;;;;;;6208868;23;20179;-90
2021/12/11 08:47:49;;;;;;;8.10;5.63;;;;;;;;;;6207643;23;20159;-90
2021/12/11 08:50:20;;;;;;;8.40;5.97;;;;;;;;;;6209315;23;20230;-93
2021/12/11 08:52:49;;;;;;;7.90;6.30;;;;;;;;;;6208428;23;20704;-90
2021/12/11 08:55:18;;;;;;;9.30;6.27;;;;;;;;;;6208504;23;20186;-92
2021/12/11 08:57:47;;;;;;;7.97;5.87;;;;;;;;;;6209502;23;20158;-91
2021/12/11 09:00:18;;;;;;;6.90;6.03;;;;;;;;;;6202922;23;20214;-90
2021/12/11 09:02:47;;;;;;;5.87;4.37;;;;;;;;;;6200679;23;20175;-94
2021/12/11 09:05:18;;;;;;;7.97;6.60;;;;;;;;;;6202034;23;20174;-93
2021/12/11 09:07:49;;;;;;;8.47;6.47;;;;;;;;;;6198432;23;20210;-92
2021/12/11 09:10:20;;;;;;;6.87;6.10;;;;;;;;;;6194076;23;20510;-92
2021/12/11 09:12:52;;;;;;;8.27;6.13;;;;;;;;;;6196328;23;20618;-93
2021/12/11 09:15:22;;;;;;;10.17;6.87;;;;;;;;;;6196977;23;20187;-93
2021/12/11 09:17:50;;;;;;;12.37;7.03;;;;;;;;;;6193630;23;20200;-93
2021/12/11 09:20:23;;;;;;;9.13;5.73;;;;;;;;;;6196932;23;20198;-93
2021/12/11 09:22:53;;;;;;;11.60;7.13;;;;;;;;;;6203898;23;20182;-93
2021/12/11 09:25:22;;;;;;;8.93;6.27;;;;;;;;;;6198697;23;20179;-92
2021/12/11 09:27:53;;;;;;;7.83;6.27;;;;;;;;;;6194760;23;20205;-91
2021/12/11 09:30:22;;;;;;;8.47;6.87;;;;;;;;;;6196092;23;20203;-93
2021/12/11 09:32:51;;;;;;;9.40;7.03;;;;;;;;;;6196264;23;20221;-92
2021/12/11 09:35:21;;;;;;;9.30;6.73;;;;;;;;;;6193534;23;20241;-92
2021/12/11 09:37:49;;;;;;;7.87;6.43;;;;;;;;;;6195193;23;20178;-93
2021/12/11 09:40:22;;;;;;;8.67;6.53;;;;;;;;;;6195437;23;20668;-92
2021/12/11 09:42:49;;;;;;;7.97;6.77;;;;;;;;;;6205272;23;20169;-91
2021/12/11 09:45:20;;;;;;;12.07;7.03;;;;;;;;;;6197053;23;20189;-93
2021/12/11 09:47:51;;;;;;;8.30;6.33;;;;;;;;;;6195806;23;20251;-91
2021/12/11 09:50:20;;;;;;;10.13;7.10;;;;;;;;;;6195743;23;20199;-91
2021/12/11 09:52:47;;;;;;;11.13;7.50;;;;;;;;;;6193677;23;20182;-91
2021/12/11 09:55:17;;;;;;;10.47;7.17;;;;;;;;;;6193117;23;20194;-94
2021/12/11 09:57:46;;;;;;;10.33;7.60;;;;;;;;;;6191685;23;20480;-93
2021/12/11 10:00:15;;;;;;;8.73;7.10;;;;;;;;;;6191252;23;20250;-93
2021/12/11 10:02:44;;;;;;;8.93;7.23;;;;;;;;;;6190360;23;20248;-94
2021/12/11 10:05:28;;;;;;;10.30;6.87;;;;;;;;;;6191621;23;20178;-93
2021/12/11 10:08:13;;;;;;;9.60;7.00;;;;;;;;;;6190742;23;20503;-93
2021/12/11 10:10:41;;;;;;;9.37;7.27;;;;;;;;;;6190424;23;20202;-93
2021/12/11 10:13:09;;;;;;;10.47;7.03;;;;;;;;;;6189560;23;20218;-94
2021/12/11 10:15:38;;;;;;;10.57;7.23;;;;;;;;;;6190572;23;20197;-94
2021/12/11 10:18:09;;;;;;;12.63;7.20;;;;;;;;;;6190280;23;20567;-94
2021/12/11 10:20:41;;;;;;;11.37;7.63;;;;;;;;;;6189628;23;20199;-93
2021/12/11 10:23:10;;;;;;;9.40;7.07;;;;;;;;;;6189999;23;20237;-93
2021/12/11 10:25:38;;;;;;;9.00;7.57;;;;;;;;;;6189435;23;20175;-93
2021/12/11 10:28:08;;;;;;;9.40;7.50;;;;;;;;;;6190055;23;20179;-93
2021/12/11 10:30:39;;;;;;;10.27;7.63;;;;;;;;;;6189666;23;20273;-93
2021/12/11 10:33:08;;;;;;;9.90;7.67;;;;;;;;;;6190921;23;20599;-94
2021/12/11 10:35:39;;;;;;;11.47;8.00;;;;;;;;;;6190324;23;20245;-94
2021/12/11 10:38:07;;;;;;;14.30;8.57;;;;;;;;;;6191755;23;20232;-93
2021/12/11 10:40:38;;;;;;;11.20;8.40;;;;;;;;;;6189145;23;20198;-94
2021/12/11 10:43:08;;;;;;;10.33;8.00;;;;;;;;;;6190992;23;20633;-93
2021/12/11 10:45:35;;;;;;;12.57;8.07;;;;;;;;;;6190598;23;20175;-93
2021/12/11 10:48:04;;;;;;;10.13;8.23;;;;;;;;;;6190853;23;20185;-92
2021/12/11 10:50:35;;;;;;;11.60;7.73;;;;;;;;;;6190546;23;20194;-94
2021/12/11 10:53:03;;;;;;;11.70;7.87;;;;;;;;;;6188778;23;20170;-92
2021/12/11 10:55:32;;;;;;;9.53;7.30;;;;;;;;;;6184061;23;20253;-93
2021/12/11 10:58:01;;;;;;;10.10;7.87;;;;;;;;;;6186037;23;20558;-94
2021/12/11 11:00:31;;;;;;;12.37;8.00;;;;;;;;;;6191941;23;20249;-94
2021/12/11 11:02:59;;;;;;;9.97;7.57;;;;;;;;;;6193746;23;20209;-93
2021/12/11 11:05:27;;;;;;;9.73;7.33;;;;;;;;;;6194051;23;20202;-93
2021/12/11 11:07:56;;;;;;;10.70;7.80;;;;;;;;;;6193271;23;20179;-94
2021/12/11 11:10:25;;;;;;;9.87;7.17;;;;;;;;;;6195115;23;20195;-94
2021/12/11 11:12:53;;;;;;;9.70;8.13;;;;;;;;;;6197184;23;20248;-93
2021/12/11 11:15:21;;;;;;;9.30;7.50;;;;;;;;;;6195628;23;20195;-93
2021/12/11 11:17:49;;;;;;;11.17;8.53;;;;;;;;;;6195527;23;20175;-93
2021/12/11 11:20:18;;;;;;;8.47;6.80;;;;;;;;;;6194674;23;20267;-93
2021/12/11 11:22:46;;;;;;;8.43;7.00;;;;;;;;;;6196401;23;20167;-93
2021/12/11 11:25:17;;;;;;;9.13;7.07;;;;;;;;;;6195173;23;20174;-94
2021/12/11 11:27:45;;;;;;;9.00;7.60;;;;;;;;;;6190216;23;20167;-93
2021/12/11 11:30:14;;;;;;;8.43;6.97;;;;;;;;;;6195112;23;20207;-92
2021/12/11 11:32:42;;;;;;;6.30;5.20;;;;;;;;;;6197327;23;20179;-93
2021/12/11 11:35:11;;;;;;;5.40;4.57;;;;;;;;;;6193571;23;20225;-94
2021/12/11 11:37:39;;;;;;;9.70;5.93;;;;;;;;;;6195440;23;20614;-93
2021/12/11 11:40:08;;;;;;;7.53;5.10;;;;;;;;;;6192038;23;20199;-93
2021/12/11 11:42:37;;;;;;;6.57;4.53;;;;;;;;;;6193373;23;20626;-92
2021/12/11 11:45:05;;;;;;;6.80;4.50;;;;;;;;;;6184853;23;20237;-93
2021/12/11 11:47:36;;;;;;;6.97;5.10;;;;;;;;;;6190021;23;20182;-93
2021/12/11 11:50:08;;;;;;;4.80;4.37;;;;;;;;;;6186285;23;20198;-93
2021/12/11 11:52:35;;;;;;;4.03;2.63;;;;;;;;;;6198023;23;20178;-90
2021/12/11 11:55:06;;;;;;;7.07;5.00;;;;;;;;;;6194278;23;20655;-92
2021/12/11 11:57:38;;;;;;;5.20;4.70;;;;;;;;;;6186321;23;20178;-92
2021/12/11 12:00:09;;;;;;;3.50;3.07;;;;;;;;;;6193243;23;20198;-93
2021/12/11 12:02:37;;;;;;;5.60;4.00;;;;;;;;;;6192202;23;20171;-93
2021/12/11 12:05:05;;;;;;;5.00;3.90;;;;;;;;;;6191580;23;20614;-93
2021/12/11 12:07:33;;;;;;;11.67;4.87;;;;;;;;;;6194489;23;20183;-92
2021/12/11 12:10:05;;;;;;;5.43;3.90;;;;;;;;;;6186726;23;20198;-92
2021/12/11 12:12:33;;;;;;;5.50;3.83;;;;;;;;;;6190819;23;20241;-93
2021/12/11 12:15:24;;;;;;;4.93;4.00;;;;;;;;;;6186310;23;20191;-92
2021/12/11 12:17:53;;;;;;;4.60;3.50;;;;;;;;;;6192146;23;20179;-92
2021/12/11 12:20:21;;;;;;;2.17;1.97;;;;;;;;;;6185571;23;20202;-92
2021/12/11 12:22:50;;;;;;;5.30;3.83;;;;;;;;;;6185779;23;20175;-92
2021/12/11 12:25:17;;;;;;;3.40;2.93;;;;;;;;;;6186185;23;20181;-92
2021/12/11 12:27:46;;;;;;;4.20;3.47;;;;;;;;;;6186323;23;20225;-93
2021/12/11 12:30:15;;;;;;;4.23;3.83;;;;;;;;;;6195381;23;20202;-92
2021/12/11 12:32:43;;;;;;;6.07;3.50;;;;;;;;;;6193612;23;20553;-94
2021/12/11 12:35:14;;;;;;;3.40;3.10;;;;;;;;;;6195391;23;20190;-93
2021/12/11 12:37:42;;;;;;;5.03;3.40;;;;;;;;;;6197599;23;20175;-94
2021/12/11 12:40:11;;;;;;;4.53;3.80;;;;;;;;;;6187894;23;20672;-92
2021/12/11 12:42:50;;;;;;;5.13;3.70;;;;;;;;;;6185997;23;20633;-92
2021/12/11 12:45:20;;;;;;;3.40;3.07;;;;;;;;;;6186025;23;20175;-92
2021/12/11 12:47:49;;;;;;;5.10;4.03;;;;;;;;;;6186548;23;20634;-91
2021/12/11 12:50:21;;;;;;;4.20;3.80;;;;;;;;;;6185630;23;20644;-91
2021/12/11 12:52:49;;;;;;;4.90;3.63;;;;;;;;;;6186553;23;20171;-92
2021/12/11 12:55:19;;;;;;;6.67;3.20;;;;;;;;;;6197772;23;20200;-91
2021/12/11 12:57:51;;;;;;;4.77;3.67;;;;;;;;;;6191691;23;20177;-92
2021/12/11 13:00:21;;;;;;;3.70;3.40;;;;;;;;;;6186583;23;20199;-94
2021/12/11 13:02:49;;;;;;;6.13;3.47;;;;;;;;;;6191084;23;20175;-93
2021/12/11 13:05:20;;;;;;;3.63;3.20;;;;;;;;;;6189211;23;20175;-93
2021/12/11 13:07:48;;;;;;;5.83;3.77;;;;;;;;;;6189592;23;20171;-93
2021/12/11 13:10:18;;;;;;;5.37;3.73;;;;;;;;;;6188426;23;20257;-92
2021/12/11 13:12:46;;;;;;;4.63;3.50;;;;;;;;;;6185508;23;20174;-92
2021/12/11 13:15:24;;;;;;;4.90;3.80;;;;;;;;;;6185330;23;20182;-91
2021/12/11 13:17:52;;;;;;;4.27;3.00;;;;;;;;;;6185124;23;20171;-92
2021/12/11 13:20:23;;;;;;;3.83;3.03;;;;;;;;;;6184781;23;20222;-92
2021/12/11 13:22:51;;;;;;;4.10;3.33;;;;;;;;;;6185507;23;20182;-91
2021/12/11 13:25:20;;;;;;;4.20;3.03;;;;;;;;;;6185164;23;20175;-91
2021/12/11 13:27:49;;;;;;;4.17;3.20;;;;;;;;;;6185481;23;20233;-93
2021/12/11 13:30:19;;;;;;;5.73;3.73;;;;;;;;;;6184584;23;20202;-92
2021/12/11 13:32:47;;;;;;;5.13;3.47;;;;;;;;;;6186943;23;20175;-92
2021/12/11 13:35:17;;;;;;;3.77;3.30;;;;;;;;;;6185015;23;20178;-92
2021/12/11 13:37:46;;;;;;;3.23;2.93;;;;;;;;;;6185136;23;20185;-92
2021/12/11 13:40:15;;;;;;;4.60;3.60;;;;;;;;;;6184798;23;20198;-92
2021/12/11 13:42:43;;;;;;;4.77;3.53;;;;;;;;;;6185291;23;20258;-92
2021/12/11 13:45:13;;;;;;;5.10;4.27;;;;;;;;;;6184514;23;20178;-92
2021/12/11 13:47:41;;;;;;;5.10;4.00;;;;;;;;;;6185104;23;20224;-92
2021/12/11 13:50:10;;;;;;;4.00;3.40;;;;;;;;;;6185126;23;20203;-92
2021/12/11 13:52:37;;;;;;;5.93;4.03;;;;;;;;;;6184729;23;20174;-92
2021/12/11 13:55:09;;;;;;;7.70;4.00;;;;;;;;;;6185098;23;20193;-92
2021/12/11 13:57:36;;;;;;;5.63;3.80;;;;;;;;;;6185450;23;20225;-91
2021/12/11 14:00:08;;;;;;;9.60;4.43;;;;;;;;;;6184960;23;20222;-92
2021/12/11 14:02:35;;;;;;;5.10;3.80;;;;;;;;;;6185042;23;20575;-92
2021/12/11 14:05:03;;;;;;;5.93;4.23;;;;;;;;;;6188662;23;20189;-93
2021/12/11 14:07:36;;;;;;;4.73;4.23;;;;;;;;;;6191124;23;20225;-93
2021/12/11 14:10:06;;;;;;;4.13;3.63;;;;;;;;;;6190932;23;20214;-93
2021/12/11 14:12:36;;;;;;;4.50;4.00;;;;;;;;;;6189929;23;20186;-94
2021/12/11 14:15:07;;;;;;;4.60;3.57;;;;;;;;;;6190202;23;20174;-92
2021/12/11 14:17:34;;;;;;;4.20;3.57;;;;;;;;;;6186246;23;20198;-93
2021/12/11 14:20:02;;;;;;;4.83;3.67;;;;;;;;;;6186682;23;20198;-94
2021/12/11 14:22:31;;;;;;;6.63;3.90;;;;;;;;;;6190939;23;20202;-93
2021/12/11 14:24:58;;;;;;;4.03;3.40;;;;;;;;;;6193577;23;20175;-94
2021/12/11 14:27:26;;;;;;;3.90;3.50;;;;;;;;;;6192147;23;20177;-92
2021/12/11 14:29:56;;;;;;;4.03;3.40;;;;;;;;;;6189659;23;20199;-93
2021/12/11 14:32:24;;;;;;;4.33;3.30;;;;;;;;;;6193360;23;20202;-94
2021/12/11 14:34:51;;;;;;;3.70;3.17;;;;;;;;;;6194582;23;20183;-93
2021/12/11 14:37:19;;;;;;;5.47;3.53;;;;;;;;;;6191300;23;20218;-92
2021/12/11 14:39:47;;;;;;;4.67;3.77;;;;;;;;;;6193613;23;20203;-93
2021/12/11 14:42:15;;;;;;;4.87;3.23;;;;;;;;;;6197060;23;20197;-93
2021/12/11 14:44:42;;;;;;;7.70;3.60;;;;;;;;;;6195260;23;20195;-94
2021/12/11 14:47:12;;;;;;;8.13;3.80;;;;;;;;;;6194236;23;20174;-93
2021/12/11 14:49:41;;;;;;;4.40;3.83;;;;;;;;;;6193676;23;20206;-94
2021/12/11 14:52:09;;;;;;;5.70;4.27;;;;;;;;;;6194199;23;20179;-94
2021/12/11 14:54:37;;;;;;;3.90;3.47;;;;;;;;;;6195662;23;20181;-93
2021/12/11 14:57:05;;;;;;;4.87;3.83;;;;;;;;;;6193258;23;20252;-94
2021/12/11 14:59:36;;;;;;;4.03;3.30;;;;;;;;;;6194368;23;20651;-93
2021/12/11 15:02:05;;;;;;;4.97;3.83;;;;;;;;;;6196012;23;20389;-94
2021/12/11 15:04:37;;;;;;;6.60;3.57;;;;;;;;;;6195505;23;20210;-93